Crisp Cnty-Cordele AP, Cordel, GA

4:44 AM EST on December 18, 2017 (GMT -0500)
Crisp County-Cordele

Weather History for KCKF - March, 2014

Change the Weather History Date:

Friday, March 21, 2014

  Actual Average (KFZG) Record (KFZG)
Temperature  
Mean Temperature 60 °F -  
Max Temperature 78 °F 72 °F 84 °F (2017)
Min Temperature 43 °F 49 °F 41 °F (2016)
Degree Days  
Heating Degree Days 4    
Growing Degree Days 10 (Base 50)    
Moisture  
Dew Point 40 °F    
Average Humidity 54    
Maximum Humidity 91    
Minimum Humidity 18    
Precipitation  
Precipitation 0.00 in - - ()
Sea Level Pressure  
Sea Level Pressure 30.11 in    
Wind  
Wind Speed 1 mph (SE)    
Max Wind Speed 8 mph    
Max Gust Speed -    
Visibility 10 miles    
Events      
Averages and records for this station are not official NWS values.
T = Trace of Precipitation, MM = Missing Value Source: NWS Daily Summary

Daily Weather History Graph

Daily Weather History Graph

Search for Another Location

Airport or City:

Trip Planner

Search our weather history database for the weather conditions in past years. The results will help you decide how hot, cold, wet, or windy it might be!

Date:

Astronomy

Mar. 21, 2014 Rise Set
Actual Time 7:37 AM EDT 7:47 PM EDT
Civil Twilight 7:13 AM EDT 8:11 PM EDT
Nautical Twilight 6:44 AM EDT 8:40 PM EDT
Astronomical Twilight 6:16 AM EDT 9:08 PM EDT
Moon No Moon Rise 10:44 AM EDT (3/21)
Length of Visible Light 12h 58m
Length of Day
12h 09m
Waning Gibbous, 75% of the Moon is Illuminated
Mar 21
Waning Gibbous
Mar 23
Last Quarter
Mar 30
New
Apr 7
First Quarter
Apr 15
Full

Hourly Weather History & Observations

Time (EDT) Temp. Dew Point Humidity Pressure Visibility Wind Dir Wind Speed Gust Speed Precip Events Conditions
12:15 AM 53.8 °F 48.2 °F 81% 30.10 in 10.0 mi Calm Calm - N/A   Clear
12:35 AM 52.2 °F 47.1 °F 83% 30.09 in 10.0 mi Calm Calm - N/A   Clear
12:55 AM 52.7 °F 48.0 °F 84% 30.09 in 10.0 mi Calm Calm - N/A   Clear
1:15 AM 51.3 °F 45.7 °F 81% 30.10 in 10.0 mi Calm Calm - N/A   Clear
1:35 AM 51.1 °F 44.4 °F 78% 30.09 in 10.0 mi Calm Calm - N/A   Clear
1:55 AM 50.9 °F 44.8 °F 80% 30.09 in 10.0 mi Calm Calm - N/A   Clear
2:15 AM 50.5 °F 44.6 °F 80% 30.09 in 10.0 mi Calm Calm - N/A   Clear
2:35 AM 49.6 °F 43.3 °F 79% 30.09 in 10.0 mi Calm Calm - N/A   Clear
2:55 AM 49.5 °F 41.5 °F 74% 30.09 in 10.0 mi Calm Calm - N/A   Clear
3:15 AM 48.7 °F 44.1 °F 84% 30.09 in 10.0 mi Calm Calm - N/A   Clear
3:35 AM 47.8 °F 43.9 °F 86% 30.09 in 10.0 mi Calm Calm - N/A   Clear
3:55 AM 47.8 °F 43.9 °F 86% 30.09 in 10.0 mi Calm Calm - N/A   Clear
4:15 AM 47.5 °F 44.1 °F 88% 30.09 in 10.0 mi Calm Calm - N/A   Clear
4:35 AM 46.9 °F 43.9 °F 89% 30.09 in 10.0 mi Calm Calm - N/A   Clear
4:55 AM 46.6 °F 43.3 °F 88% 30.09 in 10.0 mi Calm Calm - N/A   Clear
5:15 AM 46.4 °F 43.0 °F 88% 30.10 in 10.0 mi Calm Calm - N/A   Clear
5:35 AM 46.4 °F 42.8 °F 87% 30.10 in 10.0 mi Calm Calm - N/A   Clear
5:55 AM 45.5 °F 42.3 °F 88% 30.11 in 10.0 mi Calm Calm - N/A   Clear
6:15 AM 45.1 °F 42.1 °F 89% 30.12 in 10.0 mi Calm Calm - N/A   Clear
6:35 AM 44.8 °F 42.1 °F 90% 30.12 in 10.0 mi Calm Calm - N/A   Clear
6:55 AM 44.6 °F 42.1 °F 91% 30.13 in 10.0 mi Calm Calm - N/A   Clear
7:15 AM 44.2 °F 41.7 °F 91% 30.13 in 10.0 mi Calm Calm - N/A   Clear
7:35 AM 44.4 °F 41.5 °F 90% 30.14 in 10.0 mi Calm Calm - N/A   Clear
7:55 AM 43.7 °F 41.0 °F 90% 30.14 in 10.0 mi Calm Calm - N/A   Clear
8:15 AM 44.8 °F 41.0 °F 87% 30.15 in 10.0 mi Calm Calm - N/A   Clear
8:35 AM 46.6 °F 43.9 °F 90% 30.16 in 10.0 mi Calm Calm - N/A   Clear
8:55 AM 49.8 °F 43.7 °F 79% 30.16 in 10.0 mi Calm Calm - N/A   Clear
9:15 AM 53.1 °F 41.0 °F 64% 30.16 in 10.0 mi NE 3.5 mph - N/A   Clear
9:35 AM 55.9 °F 37.4 °F 50% 30.17 in 10.0 mi ENE 4.6 mph - N/A   Clear
9:55 AM 58.8 °F 38.5 °F 47% 30.17 in 10.0 mi ENE 3.5 mph - N/A   Clear
10:15 AM 62.2 °F 33.8 °F 35% 30.18 in 10.0 mi East 6.9 mph - N/A   Clear
10:35 AM 64.2 °F 31.8 °F 30% 30.19 in 10.0 mi East 5.8 mph - N/A   Clear
10:55 AM 65.8 °F 29.5 °F 26% 30.19 in 10.0 mi East 8.1 mph - N/A   Clear
11:15 AM 67.3 °F 29.8 °F 25% 30.19 in 10.0 mi ESE 8.1 mph - N/A   Clear
11:35 AM 68.0 °F 29.8 °F 24% 30.19 in 10.0 mi ESE 8.1 mph - N/A   Clear
11:55 AM 69.3 °F 31.1 °F 24% 30.19 in 10.0 mi East 4.6 mph - N/A   Clear
12:15 PM 70.2 °F 28.6 °F 21% 30.19 in 10.0 mi NE 8.1 mph - N/A   Clear
12:35 PM 71.1 °F 30.2 °F 22% 30.18 in 10.0 mi ESE 4.6 mph - N/A   Clear
12:55 PM 71.6 °F 29.3 °F 21% 30.17 in 10.0 mi East 4.6 mph - N/A   Clear
1:15 PM 72.3 °F 31.3 °F 22% 30.16 in 10.0 mi East 3.5 mph - N/A   Clear
1:35 PM 73.2 °F 31.1 °F 21% 30.15 in 10.0 mi SE 5.8 mph - N/A   Clear
1:55 PM 73.8 °F 31.6 °F 21% 30.13 in 10.0 mi ENE 4.6 mph - N/A   Clear
2:15 PM 74.5 °F 31.8 °F 21% 30.12 in 10.0 mi Calm Calm - N/A   Clear
2:35 PM 74.5 °F 32.0 °F 21% 30.11 in 10.0 mi South 3.5 mph - N/A   Clear
2:55 PM 75.7 °F 32.5 °F 21% 30.09 in 10.0 mi ESE 4.6 mph - N/A   Clear
3:15 PM 76.6 °F 33.1 °F 20% 30.09 in 10.0 mi SE 3.5 mph - N/A   Clear
3:35 PM 75.7 °F 34.2 °F 22% 30.09 in 10.0 mi SW 3.5 mph - N/A   Clear
3:55 PM 76.1 °F 33.1 °F 21% 30.08 in 10.0 mi Calm Calm - N/A   Clear
4:15 PM 77.0 °F 34.0 °F 21% 30.08 in 10.0 mi South 5.8 mph - N/A   Clear
4:35 PM 77.4 °F 30.9 °F 18% 30.07 in 10.0 mi WSW 4.6 mph - N/A   Clear
4:55 PM 78.1 °F 32.5 °F 19% 30.07 in 10.0 mi SSE 4.6 mph - N/A   Clear
5:15 PM 78.1 °F 34.5 °F 21% 30.06 in 10.0 mi SW 3.5 mph - N/A   Clear
5:35 PM 78.1 °F 34.3 °F 20% 30.06 in 10.0 mi SSW 8.1 mph - N/A   Clear
5:55 PM 78.1 °F 33.6 °F 20% 30.06 in 10.0 mi South 8.1 mph - N/A   Clear
6:15 PM 78.1 °F 33.4 °F 20% 30.06 in 10.0 mi South 4.6 mph - N/A   Clear
6:35 PM 77.4 °F 34.2 °F 21% 30.05 in 10.0 mi South 4.6 mph - N/A   Clear
6:55 PM 76.6 °F 35.1 °F 22% 30.05 in 10.0 mi South 3.5 mph - N/A   Clear
7:15 PM 76.5 °F 35.6 °F 23% 30.05 in 10.0 mi South 4.6 mph - N/A   Clear
7:35 PM 75.2 °F 36.9 °F 25% 30.05 in 10.0 mi South 3.5 mph - N/A   Clear
7:55 PM 73.4 °F 37.6 °F 27% 30.06 in 10.0 mi SSE 3.5 mph - N/A   Clear
8:15 PM 67.6 °F 44.1 °F 43% 30.06 in 10.0 mi Calm Calm - N/A   Clear
8:35 PM 65.7 °F 45.3 °F 48% 30.06 in 10.0 mi Calm Calm - N/A   Clear
8:55 PM 64.9 °F 46.6 °F 51% 30.06 in 10.0 mi Calm Calm - N/A   Clear
9:15 PM 64.4 °F 46.6 °F 52% 30.06 in 10.0 mi Calm Calm - N/A   Clear
9:35 PM 63.1 °F 48.9 °F 60% 30.07 in 10.0 mi Calm Calm - N/A   Clear
9:55 PM 62.1 °F 48.6 °F 61% 30.07 in 10.0 mi Calm Calm - N/A   Clear
10:15 PM 61.7 °F 48.9 °F 63% 30.08 in 10.0 mi Calm Calm - N/A   Clear
10:35 PM 60.8 °F 49.5 °F 66% 30.08 in 10.0 mi Calm Calm - N/A   Clear
10:55 PM 59.9 °F 49.3 °F 68% 30.08 in 10.0 mi Calm Calm - N/A   Clear
11:15 PM 60.1 °F 49.5 °F 68% 30.08 in 10.0 mi Calm Calm - N/A   Clear
11:35 PM 59.9 °F 50.0 °F 70% 30.08 in 10.0 mi Calm Calm - N/A   Clear
11:55 PM 60.1 °F 49.8 °F 69% 30.08 in 10.0 mi Calm Calm - N/A   Clear